createdAt,value
2023-02-21T00:00:37.378Z,24.67
2023-02-21T00:01:37.370Z,24.66
2023-02-21T00:02:37.369Z,24.67
2023-02-21T00:03:37.385Z,24.70
2023-02-21T00:04:37.380Z,24.67
2023-02-21T00:05:37.409Z,24.67
2023-02-21T00:06:37.327Z,24.67
2023-02-21T00:07:37.318Z,24.70
2023-02-21T00:55:32.991Z,24.71
2023-02-21T00:56:33.952Z,24.70
2023-02-21T00:57:33.953Z,24.70
2023-02-21T00:58:33.950Z,24.70
2023-02-21T00:59:33.932Z,24.73
2023-02-21T01:00:33.920Z,24.73
2023-02-21T01:01:33.982Z,24.70
2023-02-21T01:02:33.903Z,24.71
2023-02-21T01:03:33.896Z,24.71
2023-02-21T01:04:33.933Z,24.73
2023-02-21T01:05:33.881Z,24.70
2023-02-21T01:06:33.875Z,24.70
2023-02-21T01:07:33.864Z,24.71
2023-02-21T01:08:33.857Z,24.68
2023-02-21T01:09:33.846Z,24.70
2023-02-21T01:10:32.843Z,24.71
2023-02-21T01:11:33.853Z,24.70
2023-02-21T01:12:33.824Z,24.70
2023-02-21T01:13:33.813Z,24.67
2023-02-21T01:14:33.808Z,24.68
2023-02-21T01:15:33.856Z,24.70
2023-02-21T01:16:33.785Z,24.68
2023-02-21T01:17:33.780Z,24.67
2023-02-21T01:18:33.771Z,24.68
2023-02-21T01:19:33.771Z,24.70
2023-02-21T01:20:33.751Z,24.70
2023-02-21T01:21:33.745Z,24.70
2023-02-21T01:22:33.735Z,24.70
2023-02-21T01:23:33.728Z,24.67
2023-02-21T01:24:33.728Z,24.70
2023-02-21T01:25:33.718Z,24.70
2023-02-21T01:26:33.723Z,24.68
2023-02-21T01:27:33.717Z,24.68
2023-02-21T01:28:33.686Z,24.68
2023-02-21T01:29:33.681Z,24.68
2023-02-21T01:30:33.747Z,24.68
2023-02-21T01:31:33.746Z,24.68
2023-02-21T01:32:33.694Z,24.67
2023-02-21T01:33:33.643Z,24.67
2023-02-21T01:34:36.004Z,24.70
2023-02-21T01:35:33.627Z,24.68
2023-02-21T01:36:33.610Z,24.70
2023-02-21T01:37:33.608Z,24.67
2023-02-21T01:38:33.600Z,24.67
2023-02-21T01:39:33.590Z,24.67
2023-02-21T01:40:33.592Z,24.67
2023-02-21T01:41:33.575Z,24.70
2023-02-21T01:42:33.564Z,24.68
2023-02-21T01:43:33.580Z,24.68
2023-02-21T01:44:33.546Z,24.68
2023-02-21T01:45:33.538Z,24.68
2023-02-21T01:46:33.527Z,24.68
2023-02-21T01:47:33.518Z,24.70
2023-02-21T01:48:33.508Z,24.68
2023-02-21T01:49:33.509Z,24.66
2023-02-21T01:50:33.521Z,24.68
2023-02-21T01:51:33.482Z,24.67
2023-02-21T01:52:33.472Z,24.66
2023-02-21T01:53:33.465Z,24.67
2023-02-21T01:54:33.459Z,24.68
2023-02-21T01:55:33.449Z,24.67
2023-02-21T01:56:33.441Z,24.70
2023-02-21T01:57:33.434Z,24.68
2023-02-21T01:58:33.418Z,24.67
2023-02-21T01:59:33.436Z,24.68
2023-02-21T02:00:33.409Z,24.67
2023-02-21T02:01:33.422Z,24.68
2023-02-21T02:02:33.388Z,24.68
2023-02-21T02:03:33.381Z,24.67
2023-02-21T02:04:33.435Z,24.68
2023-02-21T02:05:33.372Z,24.67
2023-02-21T02:06:33.352Z,24.68
2023-02-21T02:07:33.345Z,24.67
2023-02-21T02:08:33.336Z,24.66
2023-02-21T02:09:33.323Z,24.70
2023-02-21T02:10:33.323Z,24.66
2023-02-21T02:11:33.316Z,24.68
2023-02-21T02:12:33.296Z,24.68
2023-02-21T02:13:33.291Z,24.67
2023-02-21T02:14:33.286Z,24.68
2023-02-21T02:15:33.340Z,24.68
2023-02-21T02:16:33.268Z,24.67
2023-02-21T02:17:33.257Z,24.66
2023-02-21T02:18:33.260Z,24.68
2023-02-21T02:19:33.319Z,24.68
2023-02-21T02:20:33.238Z,24.68
2023-02-21T02:21:33.218Z,24.67
2023-02-21T02:22:33.220Z,24.67
2023-02-21T02:23:33.203Z,24.68
2023-02-21T02:24:33.196Z,24.68
2023-02-21T02:25:33.189Z,24.66
2023-02-21T02:26:33.198Z,24.67
2023-02-21T04:12:32.261Z,24.67
2023-02-21T05:14:31.723Z,24.63
2023-02-21T05:15:31.710Z,24.64
2023-02-21T05:16:31.751Z,24.62
2023-02-21T05:17:31.695Z,24.64
2023-02-21T05:18:31.693Z,24.64
2023-02-21T05:19:31.681Z,24.64
2023-02-21T05:20:31.673Z,24.66
2023-02-21T05:21:31.663Z,24.64
2023-02-21T05:22:31.679Z,24.63
2023-02-21T05:23:31.650Z,24.63
2023-02-21T05:24:31.630Z,24.63
2023-02-21T05:25:31.624Z,24.63
2023-02-21T05:26:31.615Z,24.64
2023-02-21T05:28:31.632Z,24.63
2023-02-21T05:29:31.605Z,24.63
2023-02-21T05:30:31.693Z,24.64
2023-02-21T05:31:31.613Z,24.64
2023-02-21T05:32:31.563Z,24.66
2023-02-21T05:33:31.586Z,24.66
2023-02-21T05:34:31.556Z,24.66
2023-02-21T05:36:31.540Z,24.66
2023-02-21T05:39:31.602Z,24.66
2023-02-21T05:40:31.502Z,24.64
2023-02-21T05:41:31.490Z,24.66
2023-02-21T05:42:31.483Z,24.66
2023-02-21T05:43:31.502Z,24.64
2023-02-21T05:44:31.653Z,24.66
2023-02-21T05:45:31.455Z,24.64
2023-02-21T05:46:31.447Z,24.63
2023-02-21T05:47:31.434Z,24.64
2023-02-21T05:48:31.427Z,24.64
2023-02-21T05:49:31.419Z,24.66
2023-02-21T05:50:31.427Z,24.64
2023-02-21T05:51:31.408Z,24.63
2023-02-21T05:52:31.406Z,24.64
2023-02-21T05:53:31.384Z,24.63
2023-02-21T05:55:31.374Z,24.64
2023-02-21T05:56:31.368Z,24.64
2023-02-21T05:57:31.348Z,24.64
2023-02-21T05:58:31.344Z,24.64
2023-02-21T05:59:31.352Z,24.64
2023-02-21T06:00:31.321Z,24.63
2023-02-21T06:01:31.308Z,24.63
2023-02-21T06:02:31.372Z,24.67
2023-02-21T06:04:31.286Z,24.64
2023-02-21T06:05:31.277Z,24.63
2023-02-21T06:06:31.269Z,24.64
2023-02-21T06:07:31.259Z,24.64
2023-02-21T06:08:31.253Z,24.63
2023-02-21T06:09:31.249Z,24.64
2023-02-21T06:10:31.232Z,24.63
2023-02-21T06:12:31.237Z,24.64
2023-02-21T06:13:32.914Z,24.63
2023-02-21T06:14:31.200Z,24.66
2023-02-21T06:15:31.255Z,24.62
2023-02-21T06:16:31.184Z,24.63
2023-02-21T06:17:31.169Z,24.66
2023-02-21T06:19:33.279Z,24.64
2023-02-21T06:20:31.145Z,24.63
2023-02-21T06:21:31.142Z,24.63
2023-02-21T06:22:31.163Z,24.63
2023-02-21T06:23:31.118Z,24.63
2023-02-21T06:24:31.117Z,24.60
2023-02-21T06:25:31.105Z,24.62
2023-02-21T06:26:31.109Z,24.60
2023-02-21T06:27:31.090Z,24.64
2023-02-21T06:28:31.069Z,24.63
2023-02-21T06:29:31.071Z,24.64
2023-02-21T06:30:31.110Z,24.64
2023-02-21T06:31:31.142Z,24.64
2023-02-21T06:32:31.042Z,24.67
2023-02-21T06:33:31.035Z,24.67
2023-02-21T06:34:31.023Z,24.66
2023-02-21T06:35:31.019Z,24.67
2023-02-21T06:36:31.200Z,24.67
2023-02-21T06:37:31.002Z,24.70
2023-02-21T06:38:31.014Z,24.68
2023-02-21T06:39:31.008Z,24.68
2023-02-21T06:40:30.986Z,24.68
2023-02-21T06:41:30.978Z,24.70
2023-02-21T06:42:30.965Z,24.71
2023-02-21T06:43:30.950Z,24.71
2023-02-21T06:44:31.185Z,24.74
2023-02-21T06:45:30.932Z,24.74
2023-02-21T06:46:31.052Z,24.71
2023-02-21T06:47:30.946Z,24.73
2023-02-21T06:49:31.183Z,24.74
2023-02-21T06:50:30.888Z,24.76
2023-02-21T06:51:30.884Z,24.80
2023-02-21T06:52:31.873Z,24.77
2023-02-21T06:53:30.874Z,24.78
2023-02-21T06:54:31.201Z,24.78
2023-02-21T06:55:46.476Z,24.78
2023-02-21T06:56:30.877Z,24.83
2023-02-21T06:57:30.840Z,24.84
2023-02-21T06:59:31.191Z,24.87
2023-02-21T07:00:30.837Z,24.87
2023-02-21T07:01:30.848Z,24.87
2023-02-21T07:02:31.217Z,24.90
2023-02-21T07:03:30.809Z,24.90
2023-02-21T07:04:30.789Z,24.91
2023-02-21T07:05:30.777Z,24.90
2023-02-21T07:06:31.188Z,24.93
2023-02-21T07:07:32.187Z,24.88
2023-02-21T07:08:30.743Z,24.88
2023-02-21T07:09:30.835Z,24.86
2023-02-21T07:10:30.728Z,24.88
2023-02-21T07:11:30.723Z,24.87
2023-02-21T07:12:31.192Z,24.84
2023-02-21T07:14:30.691Z,24.84
2023-02-21T07:15:30.697Z,24.84
2023-02-21T07:16:30.700Z,24.84
2023-02-21T07:17:30.682Z,24.86
2023-02-21T07:18:31.660Z,24.87
2023-02-21T07:19:30.684Z,24.86
2023-02-21T07:21:30.638Z,24.86
2023-02-21T07:22:31.140Z,24.88
2023-02-21T07:32:30.705Z,24.90
2023-02-21T07:33:30.541Z,24.90
2023-02-21T08:59:37.712Z,25.21
2023-02-21T09:47:29.429Z,25.18
2023-02-21T10:22:29.129Z,25.29
2023-02-21T11:45:28.410Z,25.10
2023-02-21T11:47:28.402Z,25.15
2023-02-21T11:48:28.389Z,25.19
2023-02-21T11:50:28.383Z,25.19
2023-02-21T11:51:28.383Z,25.19
2023-02-21T11:52:28.363Z,25.21
2023-02-21T11:53:28.800Z,25.21
2023-02-21T11:54:28.336Z,25.21
2023-02-21T11:55:28.343Z,25.19
2023-02-21T11:56:28.320Z,25.21
2023-02-21T12:03:28.266Z,25.25
2023-02-21T12:04:28.247Z,25.26
2023-02-21T12:05:28.356Z,25.26
2023-02-21T12:06:28.226Z,25.25
2023-02-21T12:11:28.189Z,25.29
2023-02-21T12:13:28.180Z,25.26
2023-02-21T12:14:28.210Z,25.31
2023-02-21T12:16:28.153Z,25.31
2023-02-21T12:17:28.149Z,25.29
2023-02-21T12:18:28.146Z,25.31
2023-02-21T12:19:28.128Z,25.32
2023-02-21T12:20:28.309Z,25.35
2023-02-21T12:21:28.107Z,25.35
2023-02-21T12:22:28.103Z,25.36
2023-02-21T12:23:28.124Z,25.36
2023-02-21T12:24:28.097Z,25.36
2023-02-21T12:25:28.091Z,25.38
2023-02-21T12:26:28.066Z,25.39
2023-02-21T12:27:28.307Z,25.38
2023-02-21T12:28:28.049Z,25.38
2023-02-21T12:29:28.042Z,25.36
2023-02-21T12:30:28.093Z,25.39
2023-02-21T12:31:28.176Z,25.36
2023-02-21T12:32:28.313Z,25.36
2023-02-21T12:33:28.024Z,25.36
2023-02-21T12:34:28.008Z,25.35
2023-02-21T12:35:28.056Z,25.35
2023-02-21T12:36:28.318Z,25.35
2023-02-21T12:37:27.985Z,25.36
2023-02-21T12:38:27.970Z,25.32
2023-02-21T12:39:28.004Z,25.33
2023-02-21T12:40:28.358Z,25.36
2023-02-21T12:41:27.956Z,25.36
2023-02-21T12:42:27.949Z,25.39
2023-02-21T12:43:28.326Z,25.39
2023-02-21T12:44:27.933Z,25.39
2023-02-21T12:45:27.922Z,25.38
2023-02-21T12:46:28.132Z,25.38
2023-02-21T12:47:27.920Z,25.39
2023-02-21T12:49:27.887Z,25.38
2023-02-21T12:50:27.879Z,25.38
2023-02-21T12:52:27.864Z,25.36
2023-02-21T12:53:28.329Z,25.36
2023-02-21T12:54:27.860Z,25.35
2023-02-21T12:55:27.870Z,25.33
2023-02-21T12:56:27.839Z,25.31
2023-02-21T12:57:27.825Z,25.33
2023-02-21T12:58:27.812Z,25.33
2023-02-21T12:59:27.807Z,25.33
2023-02-21T13:00:27.801Z,25.32
2023-02-21T13:01:27.844Z,25.31
2023-02-21T13:02:27.866Z,25.31
2023-02-21T13:03:27.860Z,25.29
2023-02-21T13:04:27.763Z,25.31
2023-02-21T13:05:27.760Z,25.28
2023-02-21T13:06:29.905Z,25.26
2023-02-21T13:07:27.745Z,25.31
2023-02-21T13:08:27.828Z,25.28
2023-02-21T13:09:27.729Z,25.29
2023-02-21T13:10:27.721Z,25.29
2023-02-21T13:11:27.854Z,25.28
2023-02-21T13:12:27.704Z,25.28
2023-02-21T13:13:27.826Z,25.26
2023-02-21T13:14:27.687Z,25.29
2023-02-21T13:15:27.678Z,25.28
2023-02-21T13:16:27.817Z,25.28
2023-02-21T13:17:27.681Z,25.28
2023-02-21T13:18:27.655Z,25.25
2023-02-21T13:19:27.640Z,25.25
2023-02-21T13:20:27.630Z,25.25
2023-02-21T13:21:27.620Z,25.25
2023-02-21T13:22:27.629Z,25.25
2023-02-21T13:23:27.833Z,25.25
2023-02-21T13:24:27.605Z,25.22
2023-02-21T13:25:27.591Z,25.24
2023-02-21T13:26:27.584Z,25.24
2023-02-21T13:27:27.600Z,25.19
2023-02-21T13:28:27.566Z,25.22
2023-02-21T13:29:27.565Z,25.21
2023-02-21T13:30:27.718Z,25.21
2023-02-21T13:31:27.646Z,25.25
2023-02-21T13:32:27.620Z,25.21
2023-02-21T13:33:27.835Z,25.21
2023-02-21T13:34:27.531Z,25.19
2023-02-21T13:35:27.510Z,25.19
2023-02-21T13:36:27.494Z,25.22
2023-02-21T13:37:27.498Z,25.21
2023-02-21T13:38:27.868Z,25.18
2023-02-21T13:39:27.480Z,25.19
2023-02-21T13:40:27.466Z,25.18
2023-02-21T13:41:27.460Z,25.19
2023-02-21T13:42:27.454Z,25.19
2023-02-21T13:43:27.468Z,25.18
2023-02-21T13:44:27.842Z,25.17
2023-02-21T13:45:27.428Z,25.18
2023-02-21T13:46:27.491Z,25.18
2023-02-21T13:47:27.408Z,25.15
2023-02-21T13:48:27.867Z,25.17
2023-02-21T13:49:27.865Z,25.18
2023-02-21T13:50:27.385Z,25.17
2023-02-21T13:51:27.401Z,25.15
2023-02-21T13:52:27.371Z,25.18
2023-02-21T13:53:27.361Z,25.18
2023-02-21T13:54:27.847Z,25.18
2023-02-21T13:55:27.341Z,25.13
2023-02-21T13:56:27.335Z,25.17
2023-02-21T13:57:27.329Z,25.17
2023-02-21T13:58:27.316Z,25.15
2023-02-21T13:59:27.373Z,25.17
2023-02-21T14:00:27.313Z,25.15
2023-02-21T14:01:28.919Z,25.17
2023-02-21T14:02:27.286Z,25.18
2023-02-21T14:03:27.277Z,25.15
2023-02-21T14:04:27.373Z,25.15
2023-02-21T14:05:27.356Z,25.15
2023-02-21T14:06:27.261Z,25.15
2023-02-21T14:07:27.248Z,25.14
2023-02-21T14:08:27.241Z,25.14
2023-02-21T14:09:27.351Z,25.15
2023-02-21T14:10:27.219Z,25.14
2023-02-21T14:11:27.213Z,25.15
2023-02-21T14:12:27.203Z,25.14
2023-02-21T14:13:27.197Z,25.14
2023-02-21T14:14:27.359Z,25.14
2023-02-21T14:15:27.206Z,25.15
2023-02-21T14:16:27.248Z,25.14
2023-02-21T14:17:27.165Z,25.14
2023-02-21T14:18:27.174Z,25.13
2023-02-21T14:19:27.149Z,25.13
2023-02-21T14:20:27.137Z,25.14
2023-02-21T14:21:27.130Z,25.13
2023-02-21T14:22:27.129Z,25.11
2023-02-21T14:23:27.116Z,25.14
2023-02-21T14:24:27.405Z,25.13
2023-02-21T14:25:27.092Z,25.11
2023-02-21T14:26:27.111Z,25.13
2023-02-21T14:27:27.096Z,25.14
2023-02-21T14:28:27.082Z,25.11
2023-02-21T14:29:27.189Z,25.13
2023-02-21T14:30:27.153Z,25.11
2023-02-21T14:31:27.102Z,25.14
2023-02-21T14:32:27.137Z,25.10
2023-02-21T14:33:27.081Z,25.13
2023-02-21T14:34:27.020Z,25.13
2023-02-21T14:35:27.362Z,25.13
2023-02-21T14:36:27.002Z,25.13
2023-02-21T14:37:27.004Z,25.13
2023-02-21T14:38:27.364Z,25.13
2023-02-21T14:39:26.986Z,25.14
2023-02-21T14:40:26.970Z,25.13
2023-02-21T14:41:26.962Z,25.13
2023-02-21T14:42:26.963Z,25.14
2023-02-21T14:43:27.364Z,25.13
2023-02-21T14:44:26.942Z,25.14
2023-02-21T14:45:27.424Z,25.13
2023-02-21T14:46:26.921Z,25.14
2023-02-21T14:47:26.936Z,25.13
2023-02-21T14:48:27.374Z,25.14
2023-02-21T14:49:26.897Z,25.14
2023-02-21T14:50:27.369Z,25.13
2023-02-21T14:51:26.879Z,25.11
2023-02-21T14:52:26.870Z,25.15
2023-02-21T14:53:26.861Z,25.13
2023-02-21T14:54:26.856Z,25.13
2023-02-21T14:55:26.889Z,25.13
2023-02-21T14:56:26.876Z,25.14
2023-02-21T14:57:26.823Z,25.11
2023-02-21T14:58:26.852Z,25.11
2023-02-21T14:59:26.812Z,25.15
2023-02-21T15:00:26.873Z,25.11
2023-02-21T15:01:26.812Z,25.13
2023-02-21T15:02:26.783Z,25.15
2023-02-21T15:03:26.799Z,25.08
2023-02-21T15:04:26.791Z,25.11
2023-02-21T15:05:26.767Z,25.11
2023-02-21T15:06:26.751Z,25.11
2023-02-21T15:07:26.738Z,25.08
2023-02-21T15:08:26.726Z,25.11
2023-02-21T15:09:26.719Z,25.10
2023-02-21T15:10:26.875Z,25.11
2023-02-21T15:11:26.724Z,25.08
2023-02-21T15:12:26.697Z,25.07
2023-02-21T15:13:26.698Z,25.08
2023-02-21T15:14:26.687Z,25.07
2023-02-21T15:20:26.878Z,25.05
2023-02-21T15:26:26.882Z,25.05
2023-02-21T15:30:27.016Z,25.05
2023-02-21T15:41:26.884Z,25.01
2023-02-21T15:46:27.009Z,25.04
